createdAt,value
2023-04-04T00:02:24.308Z,54.82
2023-04-04T00:04:51.223Z,55.19
2023-04-04T00:07:17.820Z,54.99
2023-04-04T00:09:44.389Z,54.52
2023-04-04T00:12:11.233Z,54.48
2023-04-04T00:14:37.873Z,54.34
2023-04-04T00:17:04.542Z,54.50
2023-04-04T00:19:31.202Z,54.03
2023-04-04T00:21:57.806Z,54.66
2023-04-04T00:24:25.024Z,54.45
2023-04-04T00:26:51.940Z,55.11
2023-04-04T00:29:18.789Z,55.88
2023-04-04T00:31:45.877Z,55.55
2023-04-04T00:34:12.560Z,55.88
2023-04-04T00:36:39.192Z,55.38
2023-04-04T00:39:05.967Z,54.80
2023-04-04T00:41:32.911Z,55.11
2023-04-04T00:43:59.542Z,55.40
2023-04-04T00:46:28.224Z,55.62
2023-04-04T00:48:55.592Z,55.06
2023-04-04T00:51:22.313Z,55.23
2023-04-04T00:53:51.028Z,55.19
2023-04-04T00:56:18.335Z,55.28
2023-04-04T00:58:45.309Z,55.42
2023-04-04T01:01:12.901Z,55.41
2023-04-04T01:03:40.045Z,55.69
2023-04-04T01:06:09.914Z,56.13
2023-04-04T01:08:40.299Z,55.37
2023-04-04T01:11:07.350Z,56.16
2023-04-04T01:13:34.158Z,56.18
2023-04-04T01:16:01.850Z,56.44
2023-04-04T01:18:29.464Z,55.78
2023-04-04T01:21:10.865Z,55.72
2023-04-04T01:23:56.140Z,56.40
2023-04-04T01:26:23.850Z,56.16
2023-04-04T01:28:50.605Z,55.92
2023-04-04T01:31:23.490Z,56.18
2023-04-04T01:33:59.077Z,56.22
2023-04-04T01:36:36.776Z,57.22
2023-04-04T01:39:13.916Z,57.45
2023-04-04T01:41:42.048Z,56.57
2023-04-04T01:46:41.229Z,56.99
2023-04-04T01:49:08.998Z,57.14
2023-04-04T01:51:36.888Z,57.03
2023-04-04T01:54:03.829Z,57.13
2023-04-04T01:56:30.440Z,57.57
2023-04-04T01:58:57.119Z,57.40
2023-04-04T02:01:24.366Z,57.94
2023-04-04T02:03:51.115Z,56.93
2023-04-04T02:06:17.895Z,57.01
2023-04-04T02:08:44.575Z,56.91
2023-04-04T02:16:21.551Z,58.03
2023-04-04T02:18:48.364Z,57.42
2023-04-04T02:21:15.028Z,57.19
2023-04-04T02:23:41.791Z,56.82
2023-04-04T02:26:08.457Z,57.34
2023-04-04T02:28:35.104Z,57.47
2023-04-04T02:33:34.100Z,57.63
2023-04-04T02:36:00.860Z,57.99
2023-04-04T02:38:27.683Z,56.92
2023-04-04T02:43:25.684Z,57.31
2023-04-04T02:45:52.762Z,57.14
2023-04-04T02:48:19.499Z,56.95
2023-04-04T02:50:48.787Z,57.35
2023-04-04T02:53:15.515Z,58.06
2023-04-04T02:55:42.668Z,58.33
2023-04-04T02:58:09.541Z,57.82
2023-04-04T03:00:36.363Z,57.31
2023-04-04T03:03:04.004Z,57.37
2023-04-04T03:05:32.166Z,57.01
2023-04-04T03:07:59.615Z,57.31
2023-04-04T03:10:30.014Z,57.06
2023-04-04T03:12:57.606Z,56.96
2023-04-04T03:15:26.790Z,57.03
2023-04-04T03:17:54.332Z,57.10
2023-04-04T03:20:22.190Z,57.23
2023-04-04T03:22:49.417Z,57.39
2023-04-04T03:25:16.454Z,57.74
2023-04-04T03:27:43.124Z,57.54
2023-04-04T03:30:10.796Z,57.36
2023-04-04T03:32:38.203Z,57.77
2023-04-04T03:35:07.251Z,57.63
2023-04-04T03:37:34.812Z,57.50
2023-04-04T03:40:01.900Z,57.72
2023-04-04T03:42:28.661Z,57.38
2023-04-04T03:44:55.593Z,57.44
2023-04-04T03:47:22.243Z,57.33
2023-04-04T03:49:51.677Z,57.69
2023-04-04T03:52:18.949Z,57.79
2023-04-04T03:54:46.322Z,57.94
2023-04-04T03:57:13.046Z,58.16
2023-04-04T03:59:39.903Z,57.59
2023-04-04T04:02:07.071Z,57.83
2023-04-04T04:04:33.761Z,58.40
2023-04-04T04:07:01.084Z,57.77
2023-04-04T04:09:27.805Z,57.49
2023-04-04T04:14:31.813Z,56.87
2023-04-04T04:16:58.482Z,56.94
2023-04-04T04:19:25.210Z,56.67
2023-04-04T04:21:51.913Z,57.06
2023-04-04T04:24:18.500Z,57.70
2023-04-04T04:26:45.174Z,58.46
2023-04-04T04:29:11.795Z,57.37
2023-04-04T04:31:39.737Z,56.96
2023-04-04T04:34:08.888Z,57.21
2023-04-04T04:36:36.039Z,56.68
2023-04-04T04:39:03.068Z,56.84
2023-04-04T04:41:30.138Z,56.64
2023-04-04T04:43:56.853Z,56.72
2023-04-04T04:46:23.501Z,56.94
2023-04-04T04:48:50.308Z,56.38
2023-04-04T04:51:16.994Z,56.63
2023-04-04T04:53:43.758Z,57.36
2023-04-04T04:58:41.975Z,57.17
2023-04-04T05:01:08.717Z,57.71
2023-04-04T05:03:35.511Z,56.90
2023-04-04T05:08:34.580Z,57.08
2023-04-04T05:11:01.836Z,56.99
2023-04-04T05:13:29.950Z,57.44
2023-04-04T05:15:56.615Z,56.74
2023-04-04T05:18:23.290Z,56.69
2023-04-04T05:20:54.776Z,57.67
2023-04-04T05:23:21.591Z,57.43
2023-04-04T05:25:53.503Z,58.21
2023-04-04T05:28:21.328Z,59.34
2023-04-04T05:30:48.056Z,60.41
2023-04-04T05:33:14.816Z,60.63
2023-04-04T05:35:41.905Z,61.35
2023-04-04T05:38:08.910Z,61.26
2023-04-04T05:40:35.637Z,61.97
2023-04-04T05:43:04.520Z,62.31
2023-04-04T05:45:32.048Z,61.80
2023-04-04T05:47:58.865Z,61.50
2023-04-04T05:50:25.880Z,61.56
2023-04-04T05:52:57.369Z,61.64
2023-04-04T05:55:24.104Z,61.01
2023-04-04T05:57:51.657Z,60.53
2023-04-04T06:00:18.835Z,60.25
2023-04-04T06:02:45.604Z,61.35
2023-04-04T06:05:12.454Z,61.73
2023-04-04T06:07:39.083Z,61.97
2023-04-04T06:10:06.540Z,62.07
2023-04-04T06:12:33.221Z,61.49
2023-04-04T06:14:59.892Z,59.46
2023-04-04T06:17:26.757Z,58.41
2023-04-04T06:19:55.432Z,56.70
2023-04-04T06:22:22.239Z,55.20
2023-04-04T06:24:48.885Z,55.47
2023-04-04T06:27:16.046Z,54.10
2023-04-04T06:29:43.080Z,54.90
2023-04-04T06:32:09.830Z,55.48
2023-04-04T06:34:36.475Z,55.43
2023-04-04T06:37:03.772Z,54.81
2023-04-04T06:39:31.693Z,54.85
2023-04-04T06:41:58.312Z,54.59
2023-04-04T06:44:25.032Z,53.56
2023-04-04T06:46:51.773Z,53.38
2023-04-04T06:49:18.429Z,53.09
2023-04-04T06:54:16.947Z,54.25
2023-04-04T06:56:43.567Z,52.16
2023-04-04T06:59:12.521Z,51.55
2023-04-04T07:01:39.264Z,53.69
2023-04-04T07:06:44.346Z,52.63
2023-04-04T07:09:22.027Z,50.34
2023-04-04T07:11:55.082Z,48.24
2023-04-04T07:14:25.771Z,48.22
2023-04-04T07:16:53.400Z,47.48
2023-04-04T07:19:20.122Z,47.00
2023-04-04T07:21:46.732Z,46.90
2023-04-04T07:24:13.468Z,46.37
2023-04-04T07:26:41.046Z,47.14
2023-04-04T07:29:08.225Z,45.91
2023-04-04T07:31:34.875Z,45.02
2023-04-04T07:34:02.322Z,44.94
2023-04-04T07:36:29.052Z,45.31
2023-04-04T07:38:55.906Z,45.43
2023-04-04T07:41:22.848Z,44.20
2023-04-04T07:43:49.865Z,44.12
2023-04-04T07:46:17.033Z,44.90
2023-04-04T07:48:44.232Z,43.18
2023-04-04T07:51:10.844Z,43.27
2023-04-04T07:53:37.859Z,42.28
2023-04-04T07:56:06.924Z,43.04
2023-04-04T07:58:36.839Z,43.55
2023-04-04T08:01:04.109Z,43.06
2023-04-04T08:03:30.949Z,42.79
2023-04-04T08:05:57.885Z,42.85
2023-04-04T08:08:24.584Z,42.43
2023-04-04T08:10:51.288Z,42.28
2023-04-04T08:13:18.015Z,41.36
2023-04-04T08:15:44.764Z,41.24
2023-04-04T08:18:11.655Z,41.02
2023-04-04T08:23:10.138Z,40.97
2023-04-04T08:25:36.916Z,41.78
2023-04-04T08:28:05.716Z,42.37
2023-04-04T08:30:32.700Z,40.81
2023-04-04T08:32:59.417Z,40.81
2023-04-04T08:35:26.278Z,40.54
2023-04-04T08:37:53.256Z,40.61
2023-04-04T08:42:53.594Z,40.23
2023-04-04T08:47:54.253Z,39.23
2023-04-04T08:50:21.756Z,38.78
2023-04-04T08:52:49.477Z,38.82
2023-04-04T08:55:17.062Z,39.96
2023-04-04T08:57:43.743Z,38.28
2023-04-04T09:00:10.992Z,39.20
2023-04-04T09:02:43.210Z,39.40
2023-04-04T09:05:11.299Z,39.40
2023-04-04T09:10:14.488Z,39.66
2023-04-04T09:12:44.443Z,40.21
2023-04-04T09:15:11.812Z,40.37
2023-04-04T09:17:38.576Z,38.54
2023-04-04T09:20:42.034Z,39.74
2023-04-04T09:23:14.357Z,40.37
2023-04-04T09:28:24.287Z,40.19
2023-04-04T09:30:52.616Z,38.82
2023-04-04T09:33:22.029Z,38.55
2023-04-04T09:36:08.004Z,39.09
2023-04-04T09:38:37.483Z,38.09
2023-04-04T09:41:09.941Z,37.83
2023-04-04T09:43:37.742Z,38.30
2023-04-04T09:48:37.810Z,36.49
2023-04-04T09:51:06.487Z,35.56
2023-04-04T09:53:41.866Z,36.07
2023-04-04T09:56:09.245Z,36.49
2023-04-04T09:58:37.278Z,37.33
2023-04-04T10:01:12.855Z,37.09
2023-04-04T10:03:40.059Z,38.04
2023-04-04T10:06:08.518Z,37.70
2023-04-04T10:08:37.573Z,37.40
2023-04-04T10:13:37.201Z,34.46
2023-04-04T10:16:04.846Z,35.30
2023-04-04T10:18:33.635Z,35.63
2023-04-04T10:23:42.045Z,36.08
2023-04-04T10:26:08.794Z,35.88
2023-04-04T10:28:35.634Z,34.53
2023-04-04T10:31:22.774Z,33.87
2023-04-04T10:34:08.089Z,34.84
2023-04-04T10:37:07.218Z,34.03
2023-04-04T10:39:36.635Z,34.69
2023-04-04T10:42:05.941Z,33.77
2023-04-04T10:44:41.855Z,34.04
2023-04-04T10:47:15.345Z,34.84
2023-04-04T10:49:46.427Z,32.73
2023-04-04T10:52:16.138Z,33.48
2023-04-04T10:54:44.288Z,33.95
2023-04-04T10:57:12.990Z,33.25
2023-04-04T11:00:10.865Z,34.34
2023-04-04T11:02:52.745Z,33.18
2023-04-04T11:05:47.133Z,33.10
2023-04-04T11:08:20.210Z,33.15
2023-04-04T11:10:53.629Z,32.87
2023-04-04T11:13:24.229Z,33.02
2023-04-04T11:16:04.183Z,32.19
2023-04-04T11:21:14.477Z,33.12
2023-04-04T11:23:50.449Z,31.84
2023-04-04T11:26:19.025Z,33.02
2023-04-04T11:28:46.824Z,32.60
2023-04-04T11:31:19.929Z,32.47
2023-04-04T11:33:56.037Z,32.22
2023-04-04T11:36:41.703Z,33.13
2023-04-04T11:39:28.833Z,33.21
2023-04-04T11:42:00.007Z,32.36
2023-04-04T11:44:31.241Z,31.26
2023-04-04T11:47:06.771Z,32.58
2023-04-04T11:49:35.940Z,32.37
2023-04-04T11:52:11.114Z,33.98
2023-04-04T11:54:39.688Z,32.24
2023-04-04T11:57:07.604Z,31.46
2023-04-04T11:59:39.262Z,30.76
2023-04-04T12:02:06.353Z,32.43
2023-04-04T12:04:35.845Z,32.90
2023-04-04T12:07:07.013Z,31.43
2023-04-04T12:09:34.604Z,32.15
2023-04-04T12:12:01.387Z,32.32
2023-04-04T12:14:28.186Z,31.31
2023-04-04T12:16:56.848Z,32.33
2023-04-04T12:22:03.005Z,33.24
2023-04-04T12:24:30.854Z,32.06
2023-04-04T12:27:00.408Z,34.27
2023-04-04T12:29:28.712Z,33.52
2023-04-04T12:31:56.357Z,33.76
2023-04-04T12:34:25.067Z,35.41
2023-04-04T12:36:53.072Z,35.43
2023-04-04T12:39:21.681Z,36.54
2023-04-04T12:41:49.558Z,36.54
2023-04-04T12:47:10.109Z,35.75
2023-04-04T12:49:42.889Z,34.68
2023-04-04T12:52:23.661Z,33.90
2023-04-04T12:55:07.009Z,33.94
2023-04-04T12:57:36.175Z,33.63
2023-04-04T13:00:06.750Z,34.28
2023-04-04T13:02:36.452Z,34.79
2023-04-04T13:05:04.052Z,34.21
2023-04-04T13:07:34.024Z,35.14
2023-04-04T13:10:05.888Z,34.51
2023-04-04T13:12:56.970Z,35.03
2023-04-04T13:15:24.016Z,35.57
2023-04-04T13:17:52.470Z,34.04
2023-04-04T13:20:20.819Z,34.37
2023-04-04T13:25:19.104Z,34.02
2023-04-04T13:30:23.957Z,33.74
2023-04-04T13:32:50.625Z,34.90
2023-04-04T13:35:17.438Z,34.34
2023-04-04T13:37:44.040Z,34.78
2023-04-04T13:40:11.637Z,35.64
2023-04-04T13:42:38.272Z,34.98
2023-04-04T13:45:05.475Z,35.71
2023-04-04T13:47:32.171Z,35.77
2023-04-04T13:49:58.861Z,34.50
2023-04-04T13:52:25.687Z,35.04
2023-04-04T13:54:52.351Z,36.00
2023-04-04T13:57:19.074Z,34.73
2023-04-04T13:59:45.839Z,34.72
2023-04-04T14:02:12.681Z,35.03
2023-04-04T14:04:39.460Z,34.27
2023-04-04T14:07:06.392Z,35.19
2023-04-04T14:09:33.207Z,35.56
2023-04-04T14:11:59.839Z,35.41
2023-04-04T14:14:26.532Z,35.59
2023-04-04T14:16:53.329Z,35.83
2023-04-04T14:19:20.346Z,36.36
2023-04-04T14:21:49.073Z,36.29
2023-04-04T14:24:15.766Z,34.75
2023-04-04T14:26:42.735Z,34.96
2023-04-04T14:29:09.523Z,35.27
2023-04-04T14:31:36.309Z,34.71
2023-04-04T14:36:42.500Z,34.68
2023-04-04T14:41:44.068Z,35.91
2023-04-04T14:44:10.771Z,35.28
2023-04-04T14:46:37.575Z,36.95
2023-04-04T14:49:06.472Z,35.56
2023-04-04T14:51:33.580Z,36.89
2023-04-04T14:54:00.736Z,36.69
2023-04-04T14:56:27.492Z,36.06
2023-04-04T14:58:54.932Z,34.88
2023-04-04T15:01:23.020Z,35.24
2023-04-04T15:03:50.271Z,35.62
2023-04-04T15:06:17.099Z,36.34
2023-04-04T15:08:43.878Z,37.04
2023-04-04T15:11:10.875Z,37.13
2023-04-04T15:16:11.098Z,37.38
2023-04-04T15:18:38.378Z,38.09
2023-04-04T15:21:05.621Z,37.47
2023-04-04T15:23:32.598Z,36.65
2023-04-04T15:25:59.261Z,38.01
2023-04-04T15:28:26.086Z,37.40
2023-04-04T15:30:52.786Z,38.15
2023-04-04T15:33:19.472Z,38.83
2023-04-04T15:35:46.496Z,38.37
2023-04-04T15:38:13.110Z,38.61
2023-04-04T15:40:39.954Z,38.42
2023-04-04T15:43:06.997Z,39.35
2023-04-04T15:45:33.723Z,39.03
2023-04-04T15:48:00.509Z,37.25
2023-04-04T15:50:27.263Z,38.27
2023-04-04T15:52:53.948Z,38.99
2023-04-04T15:55:21.993Z,39.47
2023-04-04T15:57:48.890Z,39.55
2023-04-04T16:00:17.086Z,39.03
2023-04-04T16:02:44.119Z,39.25
2023-04-04T16:05:11.334Z,39.90
2023-04-04T16:07:38.028Z,38.34
2023-04-04T16:10:05.247Z,38.90
2023-04-04T16:12:31.931Z,38.68
2023-04-04T16:14:58.725Z,38.33
2023-04-04T16:17:26.352Z,39.24
2023-04-04T16:19:53.076Z,39.90
2023-04-04T16:22:19.842Z,40.01
2023-04-04T16:24:46.491Z,40.77
2023-04-04T16:27:13.210Z,39.29
2023-04-04T16:29:39.849Z,40.17
2023-04-04T16:32:08.499Z,39.25
2023-04-04T16:34:36.808Z,39.50
2023-04-04T16:37:04.434Z,39.39
2023-04-04T16:39:31.075Z,40.11
2023-04-04T16:41:58.138Z,39.27
2023-04-04T16:44:24.782Z,39.57
2023-04-04T16:49:23.988Z,40.00
2023-04-04T16:51:50.806Z,41.58
2023-04-04T16:54:17.544Z,41.59
2023-04-04T16:56:44.299Z,41.64
2023-04-04T16:59:11.432Z,41.20
2023-04-04T17:01:38.550Z,42.40
2023-04-04T17:06:37.212Z,42.70
2023-04-04T17:09:03.929Z,41.75
2023-04-04T17:14:03.078Z,41.95
2023-04-04T17:16:29.891Z,41.73
2023-04-04T17:18:56.570Z,41.84
2023-04-04T17:21:23.274Z,42.61
2023-04-04T17:23:49.929Z,41.31
2023-04-04T17:26:16.587Z,41.99
2023-04-04T17:28:43.770Z,42.94
2023-04-04T17:33:42.022Z,43.76
2023-04-04T17:36:09.016Z,44.37
2023-04-04T17:38:36.462Z,44.43
2023-04-04T17:41:04.474Z,44.98
2023-04-04T17:43:31.757Z,45.41
2023-04-04T17:45:58.474Z,45.51
2023-04-04T17:48:26.623Z,44.50
2023-04-04T17:50:53.763Z,45.01
2023-04-04T17:53:20.516Z,45.42
2023-04-04T17:55:47.229Z,45.31
2023-04-04T17:58:14.173Z,46.03
2023-04-04T18:03:20.855Z,46.57
2023-04-04T18:05:48.828Z,46.42
2023-04-04T18:08:15.839Z,46.61
2023-04-04T18:10:43.267Z,47.19
2023-04-04T18:13:10.117Z,47.46
2023-04-04T18:15:37.299Z,48.59
2023-04-04T18:20:37.986Z,47.36
2023-04-04T18:25:36.257Z,47.21
2023-04-04T18:28:03.405Z,46.59
2023-04-04T18:30:30.094Z,46.65
2023-04-04T18:32:57.730Z,46.84
2023-04-04T18:35:24.509Z,47.32
2023-04-04T18:37:51.379Z,47.34
2023-04-04T18:40:18.174Z,47.16
2023-04-04T18:42:45.282Z,47.51
2023-04-04T18:45:12.287Z,47.08
2023-04-04T18:47:40.528Z,46.81
2023-04-04T18:50:08.563Z,46.87
2023-04-04T18:52:36.692Z,46.86
2023-04-04T18:55:06.393Z,47.35
2023-04-04T18:57:34.626Z,47.46
2023-04-04T19:00:01.725Z,47.09
2023-04-04T19:02:28.453Z,46.83
2023-04-04T19:04:56.672Z,46.95
2023-04-04T19:07:26.822Z,48.00
2023-04-04T19:09:53.989Z,47.83
2023-04-04T19:12:20.677Z,47.89
2023-04-04T19:14:47.374Z,47.77
2023-04-04T19:17:15.821Z,48.16
2023-04-04T19:19:43.492Z,48.27
2023-04-04T19:22:10.244Z,47.50
2023-04-04T19:24:38.974Z,48.13
2023-04-04T19:27:05.977Z,48.38
2023-04-04T19:29:35.772Z,48.11
2023-04-04T19:32:12.386Z,49.13
2023-04-04T19:34:39.074Z,48.56
2023-04-04T19:37:06.741Z,48.26
2023-04-04T19:39:36.658Z,48.62
2023-04-04T19:42:05.561Z,48.09
2023-04-04T19:44:32.548Z,48.18
2023-04-04T19:46:59.808Z,47.75
2023-04-04T19:49:33.543Z,48.00
2023-04-04T19:52:04.563Z,48.59
2023-04-04T19:54:40.989Z,48.53
2023-04-04T19:57:17.592Z,48.68
2023-04-04T19:59:53.212Z,48.57
2023-04-04T20:02:48.899Z,48.20
2023-04-04T20:05:35.542Z,49.19
2023-04-04T20:08:02.227Z,50.99
2023-04-04T20:10:41.626Z,48.75
2023-04-04T20:13:09.090Z,48.49
2023-04-04T20:15:57.978Z,48.82
2023-04-04T20:18:32.162Z,48.53
2023-04-04T20:21:04.745Z,48.09
2023-04-04T20:23:32.753Z,48.64
2023-04-04T20:26:07.546Z,49.12
2023-04-04T20:28:35.294Z,49.29
2023-04-04T20:31:05.684Z,48.85
2023-04-04T20:33:39.886Z,49.55
2023-04-04T20:36:31.891Z,50.28
2023-04-04T20:38:59.481Z,50.81
2023-04-04T20:41:27.272Z,50.78
2023-04-04T20:43:56.853Z,50.93
2023-04-04T20:46:27.724Z,51.61
2023-04-04T20:48:57.066Z,51.57
2023-04-04T20:54:04.139Z,52.93
2023-04-04T20:56:36.725Z,52.81
2023-04-04T21:01:38.217Z,51.46
2023-04-04T21:04:05.082Z,51.75
2023-04-04T21:06:32.519Z,50.37
2023-04-04T21:08:59.202Z,52.34
2023-04-04T21:16:32.324Z,53.56
2023-04-04T21:19:01.219Z,53.74
2023-04-04T21:21:28.687Z,53.78
2023-04-04T21:23:56.915Z,54.38
2023-04-04T21:29:18.855Z,52.46
2023-04-04T21:31:47.096Z,50.75
2023-04-04T21:34:21.774Z,51.22
2023-04-04T21:39:30.649Z,52.38
2023-04-04T21:44:32.926Z,53.66
2023-04-04T21:46:59.612Z,52.00
2023-04-04T21:51:57.926Z,53.77
2023-04-04T21:54:24.598Z,52.59
2023-04-04T21:59:22.503Z,50.99
2023-04-04T22:01:50.577Z,50.88
2023-04-04T22:04:17.276Z,50.66
2023-04-04T22:06:44.176Z,50.99
2023-04-04T22:09:10.980Z,50.89
2023-04-04T22:11:42.855Z,51.37
2023-04-04T22:14:09.590Z,50.92
2023-04-04T22:16:40.276Z,50.58
2023-04-04T22:19:08.076Z,53.01
2023-04-04T22:21:37.323Z,53.00
2023-04-04T22:24:06.082Z,53.13
2023-04-04T22:26:33.479Z,53.57
2023-04-04T22:29:03.082Z,53.63
2023-04-04T22:31:30.894Z,54.25
2023-04-04T22:36:29.152Z,54.78
2023-04-04T22:38:58.785Z,55.04
2023-04-04T22:41:28.338Z,55.71
2023-04-04T22:43:55.549Z,55.71
2023-04-04T22:46:22.321Z,55.96
2023-04-04T22:48:49.161Z,56.20
2023-04-04T22:51:16.622Z,56.81
2023-04-04T22:53:44.591Z,57.61
2023-04-04T22:56:11.859Z,57.75
2023-04-04T22:58:38.960Z,58.70
2023-04-04T23:01:06.463Z,58.72
2023-04-04T23:03:33.299Z,58.40
2023-04-04T23:05:59.933Z,58.51
2023-04-04T23:08:26.708Z,59.01
2023-04-04T23:10:53.396Z,58.56
2023-04-04T23:13:20.302Z,58.48
2023-04-04T23:15:47.012Z,59.12
2023-04-04T23:18:13.725Z,58.40
2023-04-04T23:20:41.441Z,59.11
2023-04-04T23:23:08.217Z,58.96
2023-04-04T23:33:16.707Z,60.60
2023-04-04T23:35:43.397Z,60.09
2023-04-04T23:38:13.570Z,58.59
2023-04-04T23:40:40.864Z,59.51
2023-04-04T23:43:07.712Z,60.24
2023-04-04T23:45:39.778Z,59.46
2023-04-04T23:48:06.713Z,60.85
2023-04-04T23:50:33.569Z,61.33
2023-04-04T23:53:00.574Z,61.45
2023-04-04T23:55:27.565Z,62.18
2023-04-04T23:57:56.455Z,61.73
